Time;durP1;ratioP1;P1;durP2;ratioP2;P2;SDS_P1;SDS_P2;PMS_P1;PMS_P2;Temp;Humidity;BMP_temperature;BMP_pressure;BME280_temperature;BME280_humidity;BME280_pressure;Samples;Min_cycle;Max_cycle;Signal;HPM_P1;HPM_P2
2021/07/24 00:01:33;;;;;;;12.60;9.85;;;;;;;;;;4970598;28;20457;-77
2021/07/24 00:03:58;;;;;;;11.93;9.23;;;;;;;;;;4983731;28;20231;-77
2021/07/24 00:06:23;;;;;;;13.15;9.70;;;;;;;;;;4966964;28;20441;-77
2021/07/24 00:08:48;;;;;;;14.80;9.93;;;;;;;;;;4991716;28;20184;-76
2021/07/24 00:11:13;;;;;;;12.98;10.13;;;;;;;;;;4987413;28;20505;-77
2021/07/24 00:13:39;;;;;;;13.50;9.25;;;;;;;;;;4987280;28;20204;-77
2021/07/24 00:16:05;;;;;;;10.70;9.35;;;;;;;;;;4984530;28;20216;-77
2021/07/24 00:18:30;;;;;;;10.63;9.45;;;;;;;;;;4975107;28;20204;-77
2021/07/24 00:20:56;;;;;;;11.65;9.13;;;;;;;;;;4984106;28;20618;-76
2021/07/24 00:23:21;;;;;;;12.13;9.80;;;;;;;;;;4986276;28;20657;-77
2021/07/24 00:25:46;;;;;;;12.93;10.73;;;;;;;;;;4965878;28;20216;-77
2021/07/24 00:28:12;;;;;;;14.65;9.57;;;;;;;;;;4985182;28;20187;-76
2021/07/24 00:30:41;;;;;;;12.27;9.07;;;;;;;;;;4989641;28;20215;-76
2021/07/24 00:33:06;;;;;;;11.05;8.93;;;;;;;;;;4984257;28;20192;-77
2021/07/24 00:35:31;;;;;;;11.18;8.80;;;;;;;;;;4976227;28;20211;-77
2021/07/24 00:37:57;;;;;;;12.15;9.52;;;;;;;;;;4978945;28;20258;-76
2021/07/24 00:40:24;;;;;;;10.77;9.68;;;;;;;;;;4980394;28;20456;-74
2021/07/24 00:42:51;;;;;;;11.43;9.65;;;;;;;;;;4970373;28;20275;-77
2021/07/24 00:45:17;;;;;;;11.10;9.02;;;;;;;;;;4983180;28;20203;-77
2021/07/24 00:47:44;;;;;;;12.98;10.45;;;;;;;;;;4982359;28;20677;-77
2021/07/24 00:50:13;;;;;;;13.73;10.68;;;;;;;;;;4979047;28;20180;-77
2021/07/24 00:52:41;;;;;;;14.15;10.40;;;;;;;;;;4981935;28;20188;-77
2021/07/24 00:55:07;;;;;;;12.40;9.55;;;;;;;;;;4976828;28;20677;-77
2021/07/24 00:57:32;;;;;;;16.42;10.10;;;;;;;;;;4980621;28;20215;-78
2021/07/24 00:59:57;;;;;;;14.82;9.50;;;;;;;;;;4986476;28;20180;-76
2021/07/24 01:02:22;;;;;;;13.27;10.17;;;;;;;;;;4988717;28;20208;-77
2021/07/24 01:04:48;;;;;;;13.77;9.57;;;;;;;;;;4971401;28;20452;-77
2021/07/24 01:07:13;;;;;;;13.60;10.63;;;;;;;;;;4979176;28;20452;-77
2021/07/24 01:09:38;;;;;;;13.70;9.25;;;;;;;;;;4985916;28;20188;-77
2021/07/24 01:12:04;;;;;;;11.80;9.57;;;;;;;;;;4977227;28;20177;-77
2021/07/24 01:14:32;;;;;;;12.30;9.85;;;;;;;;;;4976955;28;20303;-77
2021/07/24 01:16:57;;;;;;;14.95;11.23;;;;;;;;;;4987751;28;20429;-77
2021/07/24 01:19:23;;;;;;;13.40;9.50;;;;;;;;;;4982587;28;20234;-77
2021/07/24 01:21:48;;;;;;;13.43;10.90;;;;;;;;;;4984942;28;20753;-77
2021/07/24 01:24:13;;;;;;;13.00;10.07;;;;;;;;;;4981175;28;20223;-77
2021/07/24 01:26:43;;;;;;;12.65;10.68;;;;;;;;;;4987073;28;20179;-77
2021/07/24 01:29:12;;;;;;;13.82;10.18;;;;;;;;;;4970474;28;20184;-77
2021/07/24 01:31:37;;;;;;;12.00;9.35;;;;;;;;;;4980113;28;20178;-77
2021/07/24 01:34:02;;;;;;;16.08;10.52;;;;;;;;;;4990184;28;20195;-76
2021/07/24 01:36:29;;;;;;;15.20;11.00;;;;;;;;;;4990134;28;20764;-77
2021/07/24 01:38:55;;;;;;;13.15;9.73;;;;;;;;;;4970064;28;20515;-77
2021/07/24 01:41:20;;;;;;;14.27;11.27;;;;;;;;;;4989499;28;20230;-77
2021/07/24 01:43:45;;;;;;;15.03;9.80;;;;;;;;;;4987070;28;20187;-78
2021/07/24 01:46:10;;;;;;;14.57;10.15;;;;;;;;;;4983934;28;20425;-78
2021/07/24 01:49:05;;;;;;;14.32;11.05;;;;;;;;;;4982831;28;20212;-78
2021/07/24 01:54:30;;;;;;;16.70;10.43;;;;;;;;;;4985187;28;20885;-77
2021/07/24 01:56:55;;;;;;;12.93;9.43;;;;;;;;;;4969667;28;21135;-77
2021/07/24 01:59:22;;;;;;;16.27;11.57;;;;;;;;;;4981173;28;20294;-76
2021/07/24 02:01:49;;;;;;;13.18;10.10;;;;;;;;;;4990477;28;20214;-77
2021/07/24 02:04:17;;;;;;;11.80;9.63;;;;;;;;;;4984966;28;20199;-77
2021/07/24 02:06:42;;;;;;;15.15;11.07;;;;;;;;;;4982755;28;20185;-77
2021/07/24 02:09:08;;;;;;;14.27;10.48;;;;;;;;;;4977972;28;20762;-77
2021/07/24 02:11:33;;;;;;;13.20;10.40;;;;;;;;;;4980462;28;20611;-77
2021/07/24 02:13:58;;;;;;;14.23;9.85;;;;;;;;;;4984099;28;20545;-77
2021/07/24 02:16:24;;;;;;;12.73;9.52;;;;;;;;;;4981771;28;20271;-77
2021/07/24 02:18:49;;;;;;;15.27;10.88;;;;;;;;;;4988742;28;20199;-77
2021/07/24 02:21:15;;;;;;;13.10;10.65;;;;;;;;;;4977125;28;20176;-77
2021/07/24 02:23:40;;;;;;;18.40;11.57;;;;;;;;;;4994769;28;20584;-77
2021/07/24 02:26:08;;;;;;;14.10;10.83;;;;;;;;;;4983665;28;20681;-78
2021/07/24 02:28:33;;;;;;;15.73;11.30;;;;;;;;;;4969052;28;20434;-78
2021/07/24 02:30:58;;;;;;;14.65;10.88;;;;;;;;;;4977542;28;20703;-78
2021/07/24 02:33:23;;;;;;;16.45;11.52;;;;;;;;;;4985407;28;20179;-76
2021/07/24 02:35:49;;;;;;;15.93;11.77;;;;;;;;;;4983437;28;20196;-77
2021/07/24 02:38:15;;;;;;;14.77;10.88;;;;;;;;;;4985413;28;20811;-77
2021/07/24 02:40:40;;;;;;;18.83;12.60;;;;;;;;;;4994263;28;20180;-78
2021/07/24 02:43:05;;;;;;;16.85;11.48;;;;;;;;;;4981271;28;20271;-77
2021/07/24 02:45:30;;;;;;;15.00;11.15;;;;;;;;;;4972441;28;20241;-78
2021/07/24 02:47:56;;;;;;;16.43;12.03;;;;;;;;;;4985503;28;20547;-77
2021/07/24 02:50:21;;;;;;;15.30;11.65;;;;;;;;;;4989708;28;20513;-77
2021/07/24 02:52:46;;;;;;;18.15;12.13;;;;;;;;;;4986439;28;20188;-77
2021/07/24 02:55:11;;;;;;;16.02;11.43;;;;;;;;;;4974615;28;20262;-76
2021/07/24 02:57:37;;;;;;;17.77;12.20;;;;;;;;;;4979582;28;20212;-77
2021/07/24 03:00:05;;;;;;;16.33;12.88;;;;;;;;;;4986567;28;20175;-76
2021/07/24 03:02:30;;;;;;;15.73;11.98;;;;;;;;;;4988233;28;20247;-77
2021/07/24 03:04:55;;;;;;;17.00;11.18;;;;;;;;;;4983282;28;20238;-77
2021/07/24 03:07:20;;;;;;;16.73;11.65;;;;;;;;;;4986235;28;20227;-77
2021/07/24 03:09:45;;;;;;;17.58;11.75;;;;;;;;;;4988468;28;20187;-76
2021/07/24 03:12:11;;;;;;;15.20;11.03;;;;;;;;;;4984650;28;20257;-79
2021/07/24 03:14:36;;;;;;;18.27;11.38;;;;;;;;;;4983957;28;20560;-77
2021/07/24 03:17:01;;;;;;;17.42;11.45;;;;;;;;;;4985116;28;20184;-77
2021/07/24 03:19:26;;;;;;;17.63;12.02;;;;;;;;;;4975149;28;20207;-77
2021/07/24 03:21:51;;;;;;;19.27;11.38;;;;;;;;;;4989062;28;20259;-77
2021/07/24 03:24:17;;;;;;;16.48;11.32;;;;;;;;;;4988456;28;20216;-77
2021/07/24 03:26:42;;;;;;;17.13;12.80;;;;;;;;;;4985318;28;20708;-77
2021/07/24 03:29:07;;;;;;;15.25;11.73;;;;;;;;;;4985484;28;20248;-77
2021/07/24 03:31:33;;;;;;;17.38;11.90;;;;;;;;;;4976130;28;20184;-77
2021/07/24 03:33:58;;;;;;;15.32;12.20;;;;;;;;;;4986166;28;20234;-77
2021/07/24 03:36:23;;;;;;;15.80;11.75;;;;;;;;;;4993510;28;20192;-77
2021/07/24 03:38:48;;;;;;;18.77;12.38;;;;;;;;;;4994632;28;20210;-77
2021/07/24 03:41:14;;;;;;;17.93;12.17;;;;;;;;;;4993398;28;20181;-77
2021/07/24 03:43:41;;;;;;;19.25;13.68;;;;;;;;;;4993390;28;20410;-78
2021/07/24 03:46:12;;;;;;;17.98;12.38;;;;;;;;;;4972502;28;20271;-78
2021/07/24 03:48:37;;;;;;;15.65;11.23;;;;;;;;;;4970472;28;20485;-77
2021/07/24 03:51:02;;;;;;;15.30;12.13;;;;;;;;;;4990840;28;20801;-78
2021/07/24 03:53:27;;;;;;;19.57;12.33;;;;;;;;;;4987417;28;20457;-78
2021/07/24 03:55:54;;;;;;;15.63;11.77;;;;;;;;;;4987097;28;20934;-79
2021/07/24 03:58:19;;;;;;;14.93;11.05;;;;;;;;;;4980451;28;20719;-77
2021/07/24 04:00:47;;;;;;;18.10;12.13;;;;;;;;;;4994286;28;20266;-77
2021/07/24 04:03:12;;;;;;;15.02;11.70;;;;;;;;;;4987960;28;20189;-78
2021/07/24 04:05:42;;;;;;;14.80;10.80;;;;;;;;;;4979711;28;20203;-77
2021/07/24 04:08:08;;;;;;;15.50;12.25;;;;;;;;;;4991144;28;20180;-76
2021/07/24 04:10:34;;;;;;;18.10;12.40;;;;;;;;;;4982016;28;20340;-77
2021/07/24 04:13:01;;;;;;;18.02;12.77;;;;;;;;;;4996801;28;20176;-77
2021/07/24 04:15:26;;;;;;;14.00;11.02;;;;;;;;;;4986882;28;20195;-78
2021/07/24 04:17:52;;;;;;;16.02;10.95;;;;;;;;;;4974586;28;20677;-77
2021/07/24 04:20:20;;;;;;;17.85;11.77;;;;;;;;;;4988911;28;20189;-74
2021/07/24 04:22:46;;;;;;;17.63;11.35;;;;;;;;;;4980477;28;20192;-75
2021/07/24 04:25:11;;;;;;;18.98;11.82;;;;;;;;;;4967332;28;20681;-75
2021/07/24 04:27:36;;;;;;;13.88;11.23;;;;;;;;;;4968240;28;20231;-75
2021/07/24 04:30:01;;;;;;;18.38;11.50;;;;;;;;;;4977200;28;20555;-76
2021/07/24 04:32:26;;;;;;;16.48;11.88;;;;;;;;;;4985449;28;20202;-75
2021/07/24 04:34:52;;;;;;;15.10;11.03;;;;;;;;;;4971699;28;20202;-75
2021/07/24 04:37:17;;;;;;;17.95;12.70;;;;;;;;;;4981123;28;21038;-75
2021/07/24 04:39:42;;;;;;;15.90;11.30;;;;;;;;;;4978298;28;20183;-75
2021/07/24 04:42:07;;;;;;;14.65;11.38;;;;;;;;;;4973952;28;20936;-76
2021/07/24 04:44:32;;;;;;;15.95;11.82;;;;;;;;;;4979303;28;20191;-75
2021/07/24 04:46:58;;;;;;;13.60;10.38;;;;;;;;;;4986799;28;20183;-75
2021/07/24 04:49:23;;;;;;;13.90;11.07;;;;;;;;;;4962673;28;20263;-75
2021/07/24 04:51:48;;;;;;;14.88;11.75;;;;;;;;;;4982330;28;20181;-75
2021/07/24 04:54:13;;;;;;;15.50;10.85;;;;;;;;;;4978985;28;20214;-76
2021/07/24 04:56:39;;;;;;;14.82;11.40;;;;;;;;;;4990630;28;20275;-75
2021/07/24 04:59:05;;;;;;;16.00;12.20;;;;;;;;;;4969181;28;20227;-75
2021/07/24 05:01:30;;;;;;;13.95;11.23;;;;;;;;;;4983553;28;20530;-75
2021/07/24 05:03:56;;;;;;;17.15;12.70;;;;;;;;;;4971545;28;20195;-74
2021/07/24 05:06:21;;;;;;;16.45;11.07;;;;;;;;;;4963500;28;20180;-75
2021/07/24 05:08:46;;;;;;;15.57;11.48;;;;;;;;;;4978609;28;20238;-76
2021/07/24 05:11:11;;;;;;;14.25;11.18;;;;;;;;;;4984984;28;20214;-76
2021/07/24 05:13:37;;;;;;;17.35;11.40;;;;;;;;;;4985666;28;20198;-75
2021/07/24 05:16:02;;;;;;;17.25;11.88;;;;;;;;;;4976789;28;20180;-75
2021/07/24 05:18:27;;;;;;;14.98;10.15;;;;;;;;;;4970594;28;20644;-75
2021/07/24 05:20:52;;;;;;;15.53;11.73;;;;;;;;;;4977043;28;20249;-75
2021/07/24 05:23:17;;;;;;;14.87;10.93;;;;;;;;;;4966049;28;20426;-76
2021/07/24 05:25:42;;;;;;;15.85;11.30;;;;;;;;;;4980045;28;20523;-75
2021/07/24 05:28:08;;;;;;;14.07;10.55;;;;;;;;;;4981348;28;20672;-76
2021/07/24 05:30:33;;;;;;;14.65;10.23;;;;;;;;;;4978484;28;20180;-76
2021/07/24 05:32:59;;;;;;;14.80;10.30;;;;;;;;;;4988531;28;20614;-75
2021/07/24 05:35:24;;;;;;;13.10;11.25;;;;;;;;;;4972968;28;20209;-76
2021/07/24 05:37:49;;;;;;;14.30;10.83;;;;;;;;;;4977764;28;20226;-75
2021/07/24 05:40:14;;;;;;;14.25;10.98;;;;;;;;;;4964889;28;20425;-76
2021/07/24 05:42:40;;;;;;;13.65;10.90;;;;;;;;;;4982655;28;20282;-76
2021/07/24 05:45:05;;;;;;;13.85;11.15;;;;;;;;;;4962857;28;20662;-76
2021/07/24 05:47:33;;;;;;;14.60;11.05;;;;;;;;;;4973508;28;20226;-76
2021/07/24 05:49:59;;;;;;;13.35;10.30;;;;;;;;;;4982086;28;20174;-75
2021/07/24 05:52:25;;;;;;;14.10;10.82;;;;;;;;;;4973674;28;20176;-75
2021/07/24 05:54:50;;;;;;;12.35;10.57;;;;;;;;;;4959595;28;20200;-75
2021/07/24 05:57:15;;;;;;;14.48;10.40;;;;;;;;;;4986450;28;20668;-75
2021/07/24 05:59:40;;;;;;;13.95;10.38;;;;;;;;;;4986362;28;20207;-76
2021/07/24 06:02:06;;;;;;;12.82;10.50;;;;;;;;;;4978556;28;20211;-76
2021/07/24 06:04:32;;;;;;;13.18;10.43;;;;;;;;;;4974666;28;20297;-75
2021/07/24 06:06:57;;;;;;;14.50;10.85;;;;;;;;;;4980753;28;20214;-76
2021/07/24 06:09:22;;;;;;;12.70;9.57;;;;;;;;;;4967238;28;20558;-76
2021/07/24 06:11:47;;;;;;;11.07;9.47;;;;;;;;;;4990055;28;20439;-75
2021/07/24 06:14:13;;;;;;;11.60;9.52;;;;;;;;;;4981303;28;20906;-75
2021/07/24 06:16:38;;;;;;;13.95;10.50;;;;;;;;;;4985910;28;20184;-75
2021/07/24 06:19:03;;;;;;;14.38;10.45;;;;;;;;;;4986401;28;20694;-75
2021/07/24 06:21:28;;;;;;;14.85;11.13;;;;;;;;;;4984379;28;20180;-76
2021/07/24 06:23:54;;;;;;;12.07;9.73;;;;;;;;;;4983054;28;20564;-75
2021/07/24 06:26:19;;;;;;;13.82;10.07;;;;;;;;;;4985816;28;20196;-76
2021/07/24 06:28:44;;;;;;;10.93;9.53;;;;;;;;;;4976286;28;20725;-75
2021/07/24 06:31:09;;;;;;;12.23;9.63;;;;;;;;;;4976824;28;20432;-76
2021/07/24 06:33:35;;;;;;;12.02;8.95;;;;;;;;;;4965755;28;20334;-77
2021/07/24 06:36:00;;;;;;;11.30;9.60;;;;;;;;;;4973716;28;20613;-75
2021/07/24 06:38:26;;;;;;;12.75;10.05;;;;;;;;;;4984556;28;20538;-75
2021/07/24 06:40:51;;;;;;;11.27;9.48;;;;;;;;;;4982092;28;20697;-76
2021/07/24 06:43:16;;;;;;;13.05;9.40;;;;;;;;;;4973623;28;20207;-76
2021/07/24 06:45:41;;;;;;;12.30;10.00;;;;;;;;;;4988458;28;20219;-75
2021/07/24 06:48:07;;;;;;;15.80;9.03;;;;;;;;;;4982437;28;20430;-76
2021/07/24 06:50:32;;;;;;;12.18;10.40;;;;;;;;;;4970596;28;20463;-76
2021/07/24 06:52:58;;;;;;;10.60;9.23;;;;;;;;;;4980585;28;20191;-75
2021/07/24 06:55:24;;;;;;;14.93;9.25;;;;;;;;;;4974826;28;20473;-75
2021/07/24 06:57:49;;;;;;;11.00;9.02;;;;;;;;;;4981458;28;20250;-75
2021/07/24 07:00:14;;;;;;;11.23;8.93;;;;;;;;;;4978457;28;20194;-76
2021/07/24 07:02:39;;;;;;;11.52;9.02;;;;;;;;;;4984651;28;20496;-75
2021/07/24 07:05:05;;;;;;;11.03;8.87;;;;;;;;;;4988387;28;20195;-75
2021/07/24 07:07:30;;;;;;;14.18;9.32;;;;;;;;;;4965367;28;20425;-75
2021/07/24 07:09:55;;;;;;;11.32;8.85;;;;;;;;;;4974013;28;20187;-75
2021/07/24 07:12:21;;;;;;;11.30;9.03;;;;;;;;;;4987422;28;20255;-75
2021/07/24 07:14:46;;;;;;;11.55;8.82;;;;;;;;;;4983281;28;20472;-76
2021/07/24 07:17:12;;;;;;;9.40;7.90;;;;;;;;;;4955660;28;20196;-76
2021/07/24 07:19:37;;;;;;;10.30;8.57;;;;;;;;;;4983855;28;20503;-75
2021/07/24 07:22:02;;;;;;;9.40;8.17;;;;;;;;;;4981532;28;20668;-75
2021/07/24 07:24:28;;;;;;;10.50;9.40;;;;;;;;;;4986935;28;20472;-76
2021/07/24 07:26:53;;;;;;;12.20;9.40;;;;;;;;;;4983174;28;20261;-76
2021/07/24 07:29:18;;;;;;;10.20;8.87;;;;;;;;;;4985390;28;20452;-75
2021/07/24 07:31:43;;;;;;;9.33;8.23;;;;;;;;;;4981533;28;20507;-75
2021/07/24 07:34:08;;;;;;;11.73;8.67;;;;;;;;;;4987277;28;20457;-75
2021/07/24 07:36:33;;;;;;;11.68;8.98;;;;;;;;;;4984704;28;20442;-76
2021/07/24 07:38:59;;;;;;;10.40;8.63;;;;;;;;;;4984709;28;20255;-75
2021/07/24 07:41:24;;;;;;;9.13;8.23;;;;;;;;;;4987201;28;20191;-75
2021/07/24 07:43:50;;;;;;;9.37;8.13;;;;;;;;;;4989519;28;20221;-75
2021/07/24 07:46:15;;;;;;;9.98;8.98;;;;;;;;;;4977805;28;20922;-75
2021/07/24 07:48:41;;;;;;;10.15;8.82;;;;;;;;;;4976061;28;20270;-75
2021/07/24 07:51:07;;;;;;;10.45;8.68;;;;;;;;;;4966264;28;20454;-75
2021/07/24 07:53:32;;;;;;;9.88;8.02;;;;;;;;;;4957565;28;20187;-74
2021/07/24 07:55:58;;;;;;;10.60;9.05;;;;;;;;;;4961929;28;20194;-76
2021/07/24 07:58:23;;;;;;;10.27;9.27;;;;;;;;;;4977664;28;20685;-74
2021/07/24 08:00:49;;;;;;;10.07;8.90;;;;;;;;;;4958913;28;20576;-75
2021/07/24 08:03:14;;;;;;;9.82;8.82;;;;;;;;;;4978471;28;20561;-76
2021/07/24 08:05:39;;;;;;;11.90;8.93;;;;;;;;;;4976144;28;20686;-76
2021/07/24 08:08:04;;;;;;;9.87;8.37;;;;;;;;;;4976568;28;20514;-75
2021/07/24 08:10:30;;;;;;;10.80;9.68;;;;;;;;;;4977128;28;20784;-76
2021/07/24 08:12:55;;;;;;;10.45;9.27;;;;;;;;;;4982188;28;20565;-76
2021/07/24 08:15:20;;;;;;;10.70;8.65;;;;;;;;;;4987640;28;20666;-76
2021/07/24 08:17:45;;;;;;;9.80;8.53;;;;;;;;;;4990807;28;20357;-75
2021/07/24 08:20:11;;;;;;;13.47;9.47;;;;;;;;;;4985152;28;20740;-75
2021/07/24 08:22:36;;;;;;;11.80;9.55;;;;;;;;;;4981622;28;20477;-75
2021/07/24 08:25:02;;;;;;;9.50;8.55;;;;;;;;;;4964211;28;21021;-76
2021/07/24 08:27:27;;;;;;;10.35;9.27;;;;;;;;;;4976437;28;20180;-76
2021/07/24 08:29:52;;;;;;;10.48;7.78;;;;;;;;;;4977482;28;20691;-76
2021/07/24 08:32:18;;;;;;;9.82;8.38;;;;;;;;;;4965973;28;20549;-77
2021/07/24 08:34:43;;;;;;;9.77;8.50;;;;;;;;;;4976346;28;20203;-75
2021/07/24 08:37:08;;;;;;;9.80;8.77;;;;;;;;;;4978831;28;20426;-76
2021/07/24 08:39:35;;;;;;;11.80;8.27;;;;;;;;;;4980104;28;20959;-76
2021/07/24 08:42:00;;;;;;;9.23;7.93;;;;;;;;;;4980869;28;20433;-76
2021/07/24 08:44:26;;;;;;;10.75;8.55;;;;;;;;;;4988006;28;20254;-76
2021/07/24 08:46:51;;;;;;;11.57;9.53;;;;;;;;;;4969986;28;20180;-75
2021/07/24 08:49:16;;;;;;;10.07;8.48;;;;;;;;;;4976060;28;21043;-76
2021/07/24 08:51:41;;;;;;;9.88;8.02;;;;;;;;;;4976884;28;20184;-76
2021/07/24 08:54:08;;;;;;;11.80;9.32;;;;;;;;;;4980214;28;21691;-75
2021/07/24 08:56:35;;;;;;;9.05;8.15;;;;;;;;;;4975738;28;20271;-75
2021/07/24 08:59:02;;;;;;;10.35;9.10;;;;;;;;;;4978877;28;20593;-76
2021/07/24 09:01:28;;;;;;;9.80;8.70;;;;;;;;;;4976215;28;20190;-76
2021/07/24 09:03:54;;;;;;;9.40;8.45;;;;;;;;;;4975450;28;20199;-76
2021/07/24 09:06:21;;;;;;;10.18;8.98;;;;;;;;;;4973654;28;20180;-75
2021/07/24 09:08:50;;;;;;;9.13;7.40;;;;;;;;;;4975246;28;20266;-75
2021/07/24 09:11:16;;;;;;;9.10;7.55;;;;;;;;;;4974257;28;20689;-78
2021/07/24 09:13:41;;;;;;;10.85;8.32;;;;;;;;;;4976972;28;20183;-75
2021/07/24 09:16:06;;;;;;;9.93;7.65;;;;;;;;;;4977419;28;20685;-75
2021/07/24 09:18:33;;;;;;;10.03;8.47;;;;;;;;;;4973829;28;20218;-75
2021/07/24 09:20:58;;;;;;;11.00;7.32;;;;;;;;;;4976669;28;20425;-76
2021/07/24 09:23:25;;;;;;;9.40;8.48;;;;;;;;;;4985692;28;20175;-76
2021/07/24 09:25:50;;;;;;;9.52;7.40;;;;;;;;;;4978221;28;20563;-76
2021/07/24 09:28:16;;;;;;;8.10;7.30;;;;;;;;;;4972839;28;20186;-76
2021/07/24 09:30:41;;;;;;;8.17;7.30;;;;;;;;;;4964093;28;20199;-76
2021/07/24 09:33:15;;;;;;;10.13;8.10;;;;;;;;;;4972435;28;20191;-75
2021/07/24 09:35:51;;;;;;;10.20;7.78;;;;;;;;;;4974417;28;20481;-75
2021/07/24 09:38:26;;;;;;;9.15;8.25;;;;;;;;;;4960781;28;20669;-76
2021/07/24 09:40:52;;;;;;;9.77;7.80;;;;;;;;;;4980956;28;20179;-75
2021/07/24 09:43:27;;;;;;;12.45;8.63;;;;;;;;;;4977251;28;20195;-75
2021/07/24 09:46:16;;;;;;;8.93;7.90;;;;;;;;;;4984928;28;20234;-76
2021/07/24 09:48:51;;;;;;;9.80;7.82;;;;;;;;;;4969451;28;20272;-75
2021/07/24 09:51:30;;;;;;;9.60;7.90;;;;;;;;;;4978573;28;20194;-76
2021/07/24 09:53:55;;;;;;;7.93;7.20;;;;;;;;;;4973711;28;20191;-76
2021/07/24 09:56:35;;;;;;;8.57;7.77;;;;;;;;;;4961150;28;20199;-76
2021/07/24 09:59:15;;;;;;;9.05;7.63;;;;;;;;;;4988984;28;20203;-76
2021/07/24 10:01:41;;;;;;;8.40;7.15;;;;;;;;;;4965559;28;20212;-76
2021/07/24 10:04:06;;;;;;;9.00;6.82;;;;;;;;;;4974244;28;20310;-75
2021/07/24 10:06:32;;;;;;;8.82;7.93;;;;;;;;;;4953943;28;20719;-75
2021/07/24 10:08:57;;;;;;;11.27;6.90;;;;;;;;;;4967112;28;20258;-75
2021/07/24 10:11:22;;;;;;;8.80;7.90;;;;;;;;;;4968930;28;20180;-75
2021/07/24 10:13:48;;;;;;;10.68;8.00;;;;;;;;;;4966535;28;20207;-76
2021/07/24 10:16:13;;;;;;;7.97;7.00;;;;;;;;;;4967562;28;20187;-76
2021/07/24 10:18:40;;;;;;;8.43;7.63;;;;;;;;;;4966850;28;20211;-76
2021/07/24 10:21:05;;;;;;;6.97;6.38;;;;;;;;;;4970650;28;20236;-76
2021/07/24 10:23:32;;;;;;;8.47;7.50;;;;;;;;;;4968813;28;20759;-75
2021/07/24 10:25:57;;;;;;;9.70;7.65;;;;;;;;;;4954839;28;20242;-76
2021/07/24 10:28:30;;;;;;;7.53;6.78;;;;;;;;;;4968522;28;20218;-75
2021/07/24 10:30:56;;;;;;;9.23;7.85;;;;;;;;;;4967013;28;20193;-76
2021/07/24 10:33:22;;;;;;;10.27;8.02;;;;;;;;;;4954198;28;20188;-76
2021/07/24 10:35:47;;;;;;;10.57;8.80;;;;;;;;;;4971202;28;20207;-76
2021/07/24 10:38:31;;;;;;;9.40;7.32;;;;;;;;;;4972944;28;20667;-76
2021/07/24 10:41:15;;;;;;;9.57;8.55;;;;;;;;;;4969735;28;20574;-75
2021/07/24 10:44:00;;;;;;;9.25;7.65;;;;;;;;;;4972312;28;20578;-76
2021/07/24 10:46:54;;;;;;;8.23;7.47;;;;;;;;;;4963092;28;21783;-74
2021/07/24 10:49:22;;;;;;;8.93;8.02;;;;;;;;;;4956994;28;20700;-74
2021/07/24 10:52:06;;;;;;;8.48;7.55;;;;;;;;;;4977925;28;20199;-75
2021/07/24 10:54:33;;;;;;;9.25;8.20;;;;;;;;;;4971231;28;20215;-75
2021/07/24 10:56:58;;;;;;;10.20;9.15;;;;;;;;;;4981431;28;20194;-76
2021/07/24 10:59:29;;;;;;;11.43;9.00;;;;;;;;;;4969862;28;20211;-75
2021/07/24 11:01:55;;;;;;;11.98;8.23;;;;;;;;;;4958234;28;20187;-75
2021/07/24 11:04:35;;;;;;;9.50;8.18;;;;;;;;;;4969336;28;20572;-75
2021/07/24 11:07:13;;;;;;;12.18;9.57;;;;;;;;;;4975339;28;20202;-76
2021/07/24 11:09:39;;;;;;;10.60;9.10;;;;;;;;;;4975563;28;20284;-75
2021/07/24 11:12:08;;;;;;;12.20;9.15;;;;;;;;;;4974126;28;20721;-75
2021/07/24 11:14:42;;;;;;;11.85;9.90;;;;;;;;;;4970742;28;20791;-74
2021/07/24 11:17:16;;;;;;;11.05;9.55;;;;;;;;;;4958629;28;20199;-74
2021/07/24 11:20:06;;;;;;;10.85;9.75;;;;;;;;;;4956159;28;20206;-75
2021/07/24 11:22:32;;;;;;;11.95;8.88;;;;;;;;;;4973521;28;20762;-75
2021/07/24 11:24:57;;;;;;;12.52;9.85;;;;;;;;;;4977526;28;20203;-74
2021/07/24 11:27:22;;;;;;;12.10;10.50;;;;;;;;;;4971607;28;20195;-75
2021/07/24 11:29:48;;;;;;;12.15;10.68;;;;;;;;;;4960774;28;20188;-75
2021/07/24 11:32:13;;;;;;;11.00;9.87;;;;;;;;;;4975375;28;20277;-75
2021/07/24 11:34:39;;;;;;;14.70;9.82;;;;;;;;;;4971155;28;20456;-74
2021/07/24 11:37:04;;;;;;;11.40;10.23;;;;;;;;;;4978354;28;20238;-74
2021/07/24 11:39:30;;;;;;;13.18;10.10;;;;;;;;;;4961267;28;20318;-74
2021/07/24 11:41:56;;;;;;;12.82;10.38;;;;;;;;;;4972199;28;20753;-74
2021/07/24 11:44:31;;;;;;;11.55;10.13;;;;;;;;;;4971085;28;20203;-74
2021/07/24 11:46:57;;;;;;;16.25;11.77;;;;;;;;;;4974597;28;20179;-75
2021/07/24 11:49:22;;;;;;;13.70;12.30;;;;;;;;;;4954317;28;20180;-75
2021/07/24 11:51:47;;;;;;;12.93;11.30;;;;;;;;;;4971563;28;20925;-75
2021/07/24 11:54:12;;;;;;;12.53;10.90;;;;;;;;;;4955284;28;20200;-75
2021/07/24 11:56:38;;;;;;;14.47;11.17;;;;;;;;;;4969973;28;20429;-75
2021/07/24 11:59:03;;;;;;;13.63;12.23;;;;;;;;;;4968976;28;20468;-75
2021/07/24 12:01:28;;;;;;;12.93;10.90;;;;;;;;;;4969601;28;20431;-74
2021/07/24 12:04:06;;;;;;;12.50;11.30;;;;;;;;;;4971018;28;20502;-75
2021/07/24 12:06:33;;;;;;;15.15;12.00;;;;;;;;;;4970942;28;20425;-74
2021/07/24 12:08:58;;;;;;;13.60;12.20;;;;;;;;;;4972928;28;20192;-75
2021/07/24 12:11:24;;;;;;;12.70;11.32;;;;;;;;;;4973540;28;20175;-75
2021/07/24 12:14:00;;;;;;;14.25;10.93;;;;;;;;;;4967705;28;20253;-75
2021/07/24 12:16:33;;;;;;;14.23;12.65;;;;;;;;;;4976284;28;20238;-75
2021/07/24 12:18:58;;;;;;;14.65;12.48;;;;;;;;;;4968043;28;20211;-74
2021/07/24 12:21:31;;;;;;;16.77;12.03;;;;;;;;;;4969354;28;20183;-75
2021/07/24 12:23:57;;;;;;;17.00;13.32;;;;;;;;;;4972874;28;20456;-73
2021/07/24 12:26:28;;;;;;;14.25;11.85;;;;;;;;;;4961253;28;20211;-75
2021/07/24 12:28:53;;;;;;;12.63;11.32;;;;;;;;;;4969101;28;20910;-74
2021/07/24 12:31:20;;;;;;;13.10;11.57;;;;;;;;;;4960234;28;20230;-74
2021/07/24 12:33:49;;;;;;;22.63;12.80;;;;;;;;;;4970478;28;20430;-75
2021/07/24 12:36:15;;;;;;;13.52;12.13;;;;;;;;;;4972595;28;20176;-74
2021/07/24 12:38:40;;;;;;;13.48;11.35;;;;;;;;;;4974661;28;20204;-75
2021/07/24 12:41:06;;;;;;;12.70;11.23;;;;;;;;;;4954819;28;20184;-74
2021/07/24 12:43:32;;;;;;;12.70;11.40;;;;;;;;;;4966660;28;20793;-73
2021/07/24 12:46:16;;;;;;;13.57;11.77;;;;;;;;;;4972024;28;20250;-75
2021/07/24 12:48:42;;;;;;;14.48;11.10;;;;;;;;;;4968343;28;20176;-74
2021/07/24 12:51:08;;;;;;;13.32;11.93;;;;;;;;;;4968357;28;20278;-74
2021/07/24 12:53:34;;;;;;;14.65;13.13;;;;;;;;;;4954217;28;20188;-74
2021/07/24 12:55:59;;;;;;;18.43;13.00;;;;;;;;;;4968113;28;20230;-74
2021/07/24 12:58:24;;;;;;;16.13;12.73;;;;;;;;;;4955230;28;20500;-75
2021/07/24 13:00:49;;;;;;;14.67;12.13;;;;;;;;;;4968744;28;20517;-75
2021/07/24 13:03:14;;;;;;;13.67;12.27;;;;;;;;;;4967995;28;20425;-74
2021/07/24 13:05:40;;;;;;;14.70;11.95;;;;;;;;;;4966906;28;20212;-75
2021/07/24 13:08:05;;;;;;;14.57;12.67;;;;;;;;;;4954774;28;20227;-74
2021/07/24 13:10:30;;;;;;;15.20;12.50;;;;;;;;;;4972520;28;20439;-74
2021/07/24 13:12:56;;;;;;;19.35;13.63;;;;;;;;;;4968802;28;20199;-75
2021/07/24 13:15:21;;;;;;;15.40;12.07;;;;;;;;;;4966384;28;20587;-75
2021/07/24 13:17:46;;;;;;;18.50;13.50;;;;;;;;;;4969710;28;20438;-74
2021/07/24 13:20:11;;;;;;;15.83;12.53;;;;;;;;;;4969306;28;21576;-74
2021/07/24 13:22:37;;;;;;;16.23;12.60;;;;;;;;;;4972884;28;20794;-75
2021/07/24 13:25:04;;;;;;;13.93;12.40;;;;;;;;;;4997190;23;20256;-74
2021/07/24 13:30:14;;;;;;;13.43;10.73;;;;;;;;;;4989449;28;20263;-73
2021/07/24 13:32:39;;;;;;;13.60;11.90;;;;;;;;;;4995571;28;20187;-73
2021/07/24 13:35:05;;;;;;;15.97;12.40;;;;;;;;;;4981560;28;20254;-74
2021/07/24 13:37:30;;;;;;;14.57;12.55;;;;;;;;;;4978427;28;20432;-74
2021/07/24 13:39:55;;;;;;;14.57;13.00;;;;;;;;;;4980343;28;20218;-74
2021/07/24 13:42:20;;;;;;;15.30;12.90;;;;;;;;;;4971825;28;20780;-74
2021/07/24 13:44:45;;;;;;;19.93;13.70;;;;;;;;;;4985795;28;20287;-74
2021/07/24 13:47:11;;;;;;;14.83;12.90;;;;;;;;;;4978990;28;20612;-74
2021/07/24 13:49:37;;;;;;;18.27;14.50;;;;;;;;;;4975908;28;20840;-74
2021/07/24 13:52:03;;;;;;;18.70;14.98;;;;;;;;;;4978443;28;20242;-75
2021/07/24 13:54:32;;;;;;;15.43;13.82;;;;;;;;;;4974438;28;20270;-74
2021/07/24 13:56:58;;;;;;;17.92;16.10;;;;;;;;;;4975393;28;20672;-73
2021/07/24 13:59:23;;;;;;;17.48;15.55;;;;;;;;;;4972899;28;20934;-72
2021/07/24 14:01:48;;;;;;;22.40;15.17;;;;;;;;;;4974592;28;20186;-72
2021/07/24 14:04:13;;;;;;;16.63;14.57;;;;;;;;;;4974378;28;20761;-75
2021/07/24 14:06:38;;;;;;;18.57;16.70;;;;;;;;;;4976290;28;20187;-74
2021/07/24 14:09:03;;;;;;;23.40;18.17;;;;;;;;;;4979828;28;20195;-73
2021/07/24 14:11:29;;;;;;;18.88;16.77;;;;;;;;;;4973831;28;21724;-74
2021/07/24 14:13:55;;;;;;;17.33;15.50;;;;;;;;;;4973768;28;20215;-73
2021/07/24 14:16:21;;;;;;;18.58;16.70;;;;;;;;;;4974529;28;20425;-73
2021/07/24 14:18:46;;;;;;;28.15;18.90;;;;;;;;;;4974404;28;20257;-73
2021/07/24 14:21:19;;;;;;;25.45;18.35;;;;;;;;;;4981427;28;20184;-72
2021/07/24 14:23:44;;;;;;;23.27;18.00;;;;;;;;;;4979142;28;20215;-74
2021/07/24 14:26:10;;;;;;;21.52;17.88;;;;;;;;;;4978371;28;21190;-73